Time;durP1;ratioP1;P1;durP2;ratioP2;P2;SDS_P1;SDS_P2;PMS_P1;PMS_P2;Temp;Humidity;BMP_temperature;BMP_pressure;BME280_temperature;BME280_humidity;BME280_pressure;Samples;Min_cycle;Max_cycle;Signal;HPM_P1;HPM_P2
2022/08/11 00:02:04;;;;;;;3.73;3.53;;;;;;;;;;5092214;28;21000;-75
2022/08/11 00:04:38;;;;;;;3.90;3.43;;;;;;;;;;5092310;28;20521;-77
2022/08/11 00:07:06;;;;;;;3.17;2.83;;;;;;;;;;5092435;28;20536;-75
2022/08/11 00:09:35;;;;;;;3.27;3.10;;;;;;;;;;5092531;28;20474;-75
2022/08/11 00:12:03;;;;;;;3.37;2.83;;;;;;;;;;5091771;28;20530;-75
2022/08/11 00:14:31;;;;;;;3.20;3.00;;;;;;;;;;5091708;28;20955;-75
2022/08/11 00:16:59;;;;;;;3.60;3.40;;;;;;;;;;5092428;28;20447;-76
2022/08/11 00:19:28;;;;;;;3.23;3.03;;;;;;;;;;5092854;28;20501;-76
2022/08/11 00:21:56;;;;;;;5.07;3.77;;;;;;;;;;5092184;28;20927;-76
2022/08/11 00:24:24;;;;;;;3.23;3.03;;;;;;;;;;5091987;28;20472;-75
2022/08/11 00:26:52;;;;;;;3.80;3.50;;;;;;;;;;5092024;28;20508;-76
2022/08/11 00:29:20;;;;;;;3.20;3.00;;;;;;;;;;5091800;28;20436;-75
2022/08/11 00:31:49;;;;;;;3.10;2.90;;;;;;;;;;5092081;28;20440;-76
2022/08/11 00:34:18;;;;;;;3.90;3.60;;;;;;;;;;5091456;28;20866;-75
2022/08/11 00:36:47;;;;;;;4.13;3.50;;;;;;;;;;5091843;28;20439;-76
2022/08/11 00:39:17;;;;;;;3.60;3.30;;;;;;;;;;5092000;28;20451;-76
2022/08/11 00:41:46;;;;;;;2.60;2.50;;;;;;;;;;5091929;28;20447;-76
2022/08/11 00:44:20;;;;;;;4.27;3.40;;;;;;;;;;5091827;28;20497;-75
2022/08/11 00:46:53;;;;;;;3.60;3.30;;;;;;;;;;5092089;28;20508;-74
2022/08/11 00:49:28;;;;;;;3.50;3.20;;;;;;;;;;5091769;28;20508;-76
2022/08/11 00:52:00;;;;;;;3.60;3.23;;;;;;;;;;5091700;28;20436;-75
2022/08/11 00:54:53;;;;;;;3.60;3.30;;;;;;;;;;5091168;28;20451;-76
2022/08/11 00:57:26;;;;;;;3.43;3.20;;;;;;;;;;5091520;28;20432;-75
2022/08/11 01:00:04;;;;;;;4.03;3.67;;;;;;;;;;5091431;28;20443;-76
2022/08/11 01:02:42;;;;;;;4.10;3.03;;;;;;;;;;5091229;28;20465;-74
2022/08/11 01:05:28;;;;;;;4.83;3.57;;;;;;;;;;5091653;28;20463;-74
2022/08/11 01:08:14;;;;;;;3.57;3.30;;;;;;;;;;5091232;28;20456;-75
2022/08/11 01:10:49;;;;;;;3.80;3.37;;;;;;;;;;5081642;28;20476;-75
2022/08/11 01:13:19;;;;;;;4.80;3.40;;;;;;;;;;5082270;28;20449;-75
2022/08/11 01:15:55;;;;;;;3.47;3.27;;;;;;;;;;5091705;28;20457;-75
2022/08/11 01:18:49;;;;;;;3.23;3.10;;;;;;;;;;5091278;28;20428;-75
2022/08/11 01:21:27;;;;;;;3.47;3.17;;;;;;;;;;5091573;28;20437;-75
2022/08/11 01:24:15;;;;;;;3.60;3.30;;;;;;;;;;5071667;28;20862;-74
2022/08/11 01:27:00;;;;;;;4.10;3.80;;;;;;;;;;5071031;28;20433;-75
2022/08/11 01:29:40;;;;;;;3.70;3.40;;;;;;;;;;5071069;28;20844;-75
2022/08/11 01:32:28;;;;;;;3.40;3.20;;;;;;;;;;5071077;28;20860;-76
2022/08/11 01:35:14;;;;;;;4.30;3.37;;;;;;;;;;5070587;28;20912;-75
2022/08/11 01:38:05;;;;;;;3.70;3.50;;;;;;;;;;5070620;28;20928;-77
2022/08/11 01:40:47;;;;;;;3.50;3.30;;;;;;;;;;5071152;28;20515;-75
2022/08/11 01:46:21;;;;;;;3.80;3.23;;;;;;;;;;5070462;28;20424;-75
2022/08/11 01:48:56;;;;;;;3.30;3.00;;;;;;;;;;5071170;28;20441;-77
2022/08/11 01:51:29;;;;;;;4.30;4.00;;;;;;;;;;5070780;28;20475;-74
2022/08/11 01:54:01;;;;;;;3.87;3.57;;;;;;;;;;5070727;28;20459;-75
2022/08/11 01:56:34;;;;;;;4.30;3.70;;;;;;;;;;5070783;28;20444;-76
2022/08/11 01:59:06;;;;;;;4.23;3.93;;;;;;;;;;5071179;28;20444;-75
2022/08/11 02:01:49;;;;;;;5.07;3.97;;;;;;;;;;5070617;28;20440;-75
2022/08/11 02:04:20;;;;;;;3.60;3.33;;;;;;;;;;5070292;28;20787;-74
2022/08/11 02:06:55;;;;;;;3.43;3.23;;;;;;;;;;5070503;28;20817;-75
2022/08/11 02:09:27;;;;;;;4.00;3.60;;;;;;;;;;5070309;28;20443;-76
2022/08/11 02:11:57;;;;;;;3.50;3.20;;;;;;;;;;5070669;28;20583;-76
2022/08/11 02:14:28;;;;;;;7.73;3.60;;;;;;;;;;5070282;28;20461;-76
2022/08/11 02:17:11;;;;;;;5.03;3.53;;;;;;;;;;5070519;28;20441;-75
2022/08/11 02:25:21;;;;;;;4.23;3.87;;;;;;;;;;5070654;28;20518;-75
2022/08/11 02:27:51;;;;;;;4.23;3.87;;;;;;;;;;5070689;28;20455;-75
2022/08/11 02:30:22;;;;;;;4.30;4.10;;;;;;;;;;5070053;28;20465;-75
2022/08/11 02:35:57;;;;;;;4.40;4.07;;;;;;;;;;5028317;28;20461;-75
2022/08/11 02:38:28;;;;;;;4.07;3.77;;;;;;;;;;5031399;28;20438;-75
2022/08/11 02:41:00;;;;;;;4.00;3.70;;;;;;;;;;5052992;28;20437;-75
2022/08/11 02:43:37;;;;;;;9.53;3.60;;;;;;;;;;5073490;28;20896;-76
2022/08/11 02:46:18;;;;;;;4.40;4.07;;;;;;;;;;5073613;28;20486;-76
2022/08/11 02:51:35;;;;;;;4.33;4.03;;;;;;;;;;5050510;28;20597;-76
2022/08/11 02:54:07;;;;;;;4.07;3.77;;;;;;;;;;5073369;28;20441;-76
2022/08/11 02:56:43;;;;;;;4.00;3.70;;;;;;;;;;5073354;28;20456;-75
2022/08/11 03:02:08;;;;;;;4.40;4.00;;;;;;;;;;5074185;28;20427;-74
2022/08/11 03:04:38;;;;;;;4.43;4.13;;;;;;;;;;5074193;28;20464;-75
2022/08/11 03:07:09;;;;;;;4.00;3.67;;;;;;;;;;5074090;28;20547;-75
2022/08/11 03:09:44;;;;;;;3.87;3.47;;;;;;;;;;5073575;28;20449;-75
2022/08/11 03:18:02;;;;;;;4.40;4.10;;;;;;;;;;5073419;28;20801;-74
2022/08/11 03:20:34;;;;;;;5.07;3.77;;;;;;;;;;5073424;28;20440;-75
2022/08/11 03:23:04;;;;;;;4.20;3.90;;;;;;;;;;5072831;28;20933;-76
2022/08/11 03:25:35;;;;;;;4.00;3.70;;;;;;;;;;5073505;28;20472;-75
2022/08/11 03:28:07;;;;;;;4.37;3.93;;;;;;;;;;5073408;28;20506;-75
2022/08/11 03:30:42;;;;;;;4.53;4.13;;;;;;;;;;5072929;28;20478;-75
2022/08/11 03:36:10;;;;;;;4.40;4.10;;;;;;;;;;5072707;28;20440;-75
2022/08/11 03:38:47;;;;;;;4.17;3.83;;;;;;;;;;5072804;28;20622;-76
2022/08/11 03:44:11;;;;;;;3.80;3.50;;;;;;;;;;5072579;28;20481;-75
2022/08/11 03:46:46;;;;;;;4.30;4.00;;;;;;;;;;5072259;28;20490;-76
2022/08/11 03:49:23;;;;;;;4.60;4.20;;;;;;;;;;5072566;28;20452;-75
2022/08/11 03:51:53;;;;;;;4.87;4.57;;;;;;;;;;5072227;28;20525;-75
2022/08/11 03:54:25;;;;;;;4.07;3.77;;;;;;;;;;5072021;28;20470;-76
2022/08/11 03:57:10;;;;;;;5.10;4.50;;;;;;;;;;5072375;28;20445;-75
2022/08/11 03:59:55;;;;;;;4.90;4.53;;;;;;;;;;5072364;28;20933;-76
2022/08/11 04:02:46;;;;;;;4.93;4.10;;;;;;;;;;5072006;28;20502;-74
2022/08/11 04:05:32;;;;;;;4.90;3.83;;;;;;;;;;5015938;28;20460;-75
2022/08/11 04:08:14;;;;;;;5.10;4.60;;;;;;;;;;5071563;28;20538;-74
2022/08/11 04:11:00;;;;;;;4.50;4.10;;;;;;;;;;5069608;28;20810;-75
2022/08/11 04:13:46;;;;;;;5.00;3.90;;;;;;;;;;5072041;28;20449;-75
2022/08/11 04:16:24;;;;;;;4.83;4.40;;;;;;;;;;5071971;28;20835;-74
2022/08/11 04:19:08;;;;;;;4.83;4.20;;;;;;;;;;5071982;28;20440;-75
2022/08/11 04:21:56;;;;;;;5.80;5.00;;;;;;;;;;5089445;28;20455;-75
2022/08/11 04:24:39;;;;;;;7.57;4.60;;;;;;;;;;5084580;28;20456;-75
2022/08/11 04:27:27;;;;;;;4.33;4.00;;;;;;;;;;5088244;28;20906;-75
2022/08/11 04:29:58;;;;;;;4.70;4.40;;;;;;;;;;5066055;28;20493;-74
2022/08/11 04:32:32;;;;;;;7.53;4.43;;;;;;;;;;5091600;28;20511;-74
2022/08/11 04:35:08;;;;;;;5.53;4.30;;;;;;;;;;5091900;28;20872;-75
2022/08/11 04:38:03;;;;;;;4.60;4.20;;;;;;;;;;5091874;28;20502;-76
2022/08/11 04:40:50;;;;;;;4.43;4.07;;;;;;;;;;5055498;28;20448;-75
2022/08/11 04:43:31;;;;;;;5.33;4.43;;;;;;;;;;5091328;28;20776;-75
2022/08/11 04:46:28;;;;;;;7.37;5.63;;;;;;;;;;5092124;28;20460;-75
2022/08/11 05:03:41;;;;;;;5.33;4.77;;;;;;;;;;5091593;28;20427;-77
2022/08/11 05:06:27;;;;;;;4.37;4.00;;;;;;;;;;5091509;28;20559;-75
2022/08/11 05:09:02;;;;;;;3.97;3.77;;;;;;;;;;5091654;28;20447;-76
2022/08/11 05:11:39;;;;;;;5.23;4.63;;;;;;;;;;5091597;28;20475;-76
2022/08/11 05:36:46;;;;;;;9.70;5.37;;;;;;;;;;5091283;28;20925;-75
2022/08/11 05:58:39;;;;;;;8.50;5.27;;;;;;;;;;5091097;28;20443;-76
2022/08/11 06:01:07;;;;;;;5.70;4.77;;;;;;;;;;5091625;28;20436;-76
2022/08/11 06:04:12;;;;;;;4.90;4.53;;;;;;;;;;5090975;28;20428;-76
2022/08/11 06:06:23;;;;;;;5.70;4.20;;;;;;;;;;5087369;28;20840;-76
2022/08/11 06:08:50;;;;;;;5.20;4.80;;;;;;;;;;5091491;28;20513;-75
2022/08/11 06:11:18;;;;;;;5.97;5.20;;;;;;;;;;5090560;28;20552;-76
2022/08/11 06:13:46;;;;;;;5.20;4.80;;;;;;;;;;5096881;28;20447;-76
2022/08/11 06:16:14;;;;;;;5.63;4.73;;;;;;;;;;5095220;28;20546;-75
2022/08/11 06:18:46;;;;;;;5.70;4.77;;;;;;;;;;5095300;28;20446;-75
2022/08/11 06:21:14;;;;;;;4.73;4.40;;;;;;;;;;5094530;28;20439;-75
2022/08/11 06:23:42;;;;;;;4.97;4.57;;;;;;;;;;5094947;28;20466;-75
2022/08/11 06:26:10;;;;;;;4.83;4.43;;;;;;;;;;5096375;28;20488;-76
2022/08/11 06:28:39;;;;;;;5.37;4.90;;;;;;;;;;5095822;28;20497;-76
2022/08/11 06:31:12;;;;;;;4.47;4.10;;;;;;;;;;5099612;28;20497;-75
2022/08/11 06:33:47;;;;;;;4.77;4.00;;;;;;;;;;5101376;28;20424;-74
2022/08/11 06:36:16;;;;;;;5.13;4.63;;;;;;;;;;5099383;28;20884;-75
2022/08/11 06:38:54;;;;;;;4.67;4.20;;;;;;;;;;5100494;28;20576;-75
2022/08/11 06:41:31;;;;;;;4.13;3.87;;;;;;;;;;5094915;28;20443;-75
2022/08/11 06:44:09;;;;;;;4.50;4.20;;;;;;;;;;5093703;28;20447;-75
2022/08/11 06:46:37;;;;;;;5.80;4.47;;;;;;;;;;5094231;28;20497;-75
2022/08/11 06:51:10;;;;;;;4.93;4.43;;;;;;;;;;5094301;28;20506;-76
2022/08/11 06:51:55;;;;;;;5.37;4.70;;;;;;;;;;5091168;28;20849;-75
2022/08/11 06:54:23;;;;;;;4.77;4.47;;;;;;;;;;5084482;28;20994;-74
2022/08/11 07:02:37;;;;;;;4.73;4.33;;;;;;;;;;5031043;28;20782;-76
2022/08/11 07:05:08;;;;;;;4.50;4.00;;;;;;;;;;5080425;28;20967;-74
2022/08/11 07:16:27;;;;;;;5.37;4.20;;;;;;;;;;5093704;28;20517;-76
2022/08/11 07:30:02;;;;;;;5.13;4.40;;;;;;;;;;5093589;28;20946;-74
2022/08/11 07:32:31;;;;;;;6.17;4.00;;;;;;;;;;5093203;28;21332;-73
2022/08/11 07:35:00;;;;;;;4.60;4.17;;;;;;;;;;5093344;28;20480;-75
2022/08/11 07:37:30;;;;;;;5.17;4.80;;;;;;;;;;5093401;28;20476;-74
2022/08/11 07:39:59;;;;;;;8.00;4.23;;;;;;;;;;5093424;28;20475;-75
2022/08/11 07:42:29;;;;;;;4.80;4.40;;;;;;;;;;5093018;28;20928;-75
2022/08/11 07:53:26;;;;;;;4.70;4.17;;;;;;;;;;5043182;28;20549;-74
2022/08/11 07:55:54;;;;;;;4.33;4.13;;;;;;;;;;5050325;28;20466;-75
2022/08/11 08:17:52;;;;;;;4.23;3.93;;;;;;;;;;5045334;28;20477;-77
2022/08/11 08:20:21;;;;;;;4.30;3.90;;;;;;;;;;5038554;28;20474;-75
2022/08/11 08:22:55;;;;;;;4.10;3.80;;;;;;;;;;5029686;28;20473;-75
2022/08/11 08:25:30;;;;;;;5.73;5.23;;;;;;;;;;5062488;28;20522;-75
2022/08/11 08:28:18;;;;;;;6.10;4.00;;;;;;;;;;5074150;28;20916;-76
2022/08/11 08:30:49;;;;;;;9.93;4.30;;;;;;;;;;5073195;28;20464;-76
2022/08/11 08:36:17;;;;;;;4.40;4.00;;;;;;;;;;5070380;28;20444;-76
2022/08/11 08:38:48;;;;;;;6.30;3.67;;;;;;;;;;5073982;28;20486;-75
2022/08/11 08:41:17;;;;;;;4.23;3.83;;;;;;;;;;5091001;28;20451;-76
2022/08/11 08:43:46;;;;;;;4.30;3.90;;;;;;;;;;5092561;28;20501;-76
2022/08/11 08:46:14;;;;;;;3.73;3.43;;;;;;;;;;5092122;28;20505;-75
2022/08/11 08:48:42;;;;;;;4.33;3.70;;;;;;;;;;5092269;28;20481;-76
2022/08/11 08:54:01;;;;;;;3.53;3.33;;;;;;;;;;5090870;28;20428;-75
2022/08/11 08:56:29;;;;;;;3.70;3.40;;;;;;;;;;5094397;28;20527;-75
2022/08/11 08:58:58;;;;;;;3.40;3.10;;;;;;;;;;5094543;28;20461;-75
2022/08/11 09:01:27;;;;;;;3.43;3.13;;;;;;;;;;5092843;28;20440;-76
2022/08/11 09:03:54;;;;;;;3.23;3.07;;;;;;;;;;5091272;28;20432;-76
2022/08/11 09:06:22;;;;;;;4.90;3.60;;;;;;;;;;5093261;28;20512;-75
2022/08/11 09:08:50;;;;;;;3.90;3.13;;;;;;;;;;5092042;28;20436;-77
2022/08/11 09:14:03;;;;;;;2.80;2.60;;;;;;;;;;5091689;28;20486;-75
2022/08/11 09:16:30;;;;;;;3.43;3.23;;;;;;;;;;5092087;28;20439;-77
2022/08/11 09:18:59;;;;;;;5.17;3.90;;;;;;;;;;5091514;28;20840;-76
2022/08/11 09:21:27;;;;;;;3.00;2.70;;;;;;;;;;5091654;28;20443;-77
2022/08/11 09:29:28;;;;;;;5.00;3.10;;;;;;;;;;5087601;28;20477;-78
2022/08/11 09:31:55;;;;;;;3.90;3.10;;;;;;;;;;5091828;28;21010;-75
2022/08/11 09:34:22;;;;;;;2.77;2.57;;;;;;;;;;5091354;28;22101;-76
2022/08/11 09:44:45;;;;;;;3.70;2.83;;;;;;;;;;5091828;28;20545;-75
2022/08/11 09:45:10;;;;;;;5.00;2.83;;;;;;;;;;5092383;28;20448;-77
2022/08/11 09:47:38;;;;;;;3.37;3.17;;;;;;;;;;5096394;28;20485;-76
2022/08/11 09:50:06;;;;;;;5.70;3.20;;;;;;;;;;5095794;28;20444;-77
2022/08/11 09:52:36;;;;;;;3.50;3.20;;;;;;;;;;5100841;28;20532;-76
2022/08/11 09:55:05;;;;;;;4.77;3.70;;;;;;;;;;5106248;28;20966;-76
2022/08/11 10:00:17;;;;;;;4.40;2.80;;;;;;;;;;5096788;28;20961;-76
2022/08/11 10:02:45;;;;;;;3.10;2.90;;;;;;;;;;5096189;28;20432;-76
2022/08/11 10:08:01;;;;;;;2.80;2.60;;;;;;;;;;5093334;28;20418;-76
2022/08/11 10:10:29;;;;;;;2.97;2.70;;;;;;;;;;5088368;28;20493;-76
2022/08/11 10:12:58;;;;;;;2.80;2.23;;;;;;;;;;5092694;28;20507;-75
2022/08/11 10:15:37;;;;;;;2.50;2.33;;;;;;;;;;5098462;28;20528;-74
2022/08/11 10:20:53;;;;;;;3.63;3.07;;;;;;;;;;5094685;28;20406;-75
2022/08/11 10:28:53;;;;;;;5.13;4.70;;;;;;;;;;5093635;28;20410;-75
2022/08/11 10:34:10;;;;;;;5.33;2.50;;;;;;;;;;5035612;28;20831;-75
2022/08/11 10:36:43;;;;;;;5.00;2.40;;;;;;;;;;5094249;28;20424;-76
2022/08/11 10:39:15;;;;;;;3.13;2.33;;;;;;;;;;5093666;28;20446;-76
2022/08/11 10:44:37;;;;;;;3.30;2.90;;;;;;;;;;5056406;28;20460;-76
2022/08/11 10:51:11;;;;;;;3.43;2.20;;;;;;;;;;5093330;28;20422;-76
2022/08/11 11:00:59;;;;;;;2.60;2.40;;;;;;;;;;5093787;28;20391;-77
2022/08/11 11:03:27;;;;;;;3.70;2.57;;;;;;;;;;5092917;28;20475;-77
2022/08/11 11:05:56;;;;;;;2.67;2.43;;;;;;;;;;5093170;28;20467;-76
2022/08/11 11:11:15;;;;;;;2.80;2.57;;;;;;;;;;5093567;28;20392;-77
2022/08/11 11:19:19;;;;;;;2.70;2.10;;;;;;;;;;5093066;28;20423;-77
2022/08/11 11:21:48;;;;;;;2.30;2.10;;;;;;;;;;5093216;28;20517;-77
2022/08/11 11:24:22;;;;;;;2.50;2.30;;;;;;;;;;5093058;28;20493;-77
2022/08/11 11:26:55;;;;;;;2.50;2.27;;;;;;;;;;5092675;28;20972;-77
2022/08/11 11:29:31;;;;;;;2.90;2.33;;;;;;;;;;5093084;28;20428;-76
2022/08/11 11:32:18;;;;;;;2.33;2.17;;;;;;;;;;5092391;28;20473;-76
2022/08/11 11:34:57;;;;;;;4.13;2.00;;;;;;;;;;5092701;28;20554;-76
2022/08/11 11:37:24;;;;;;;2.40;2.30;;;;;;;;;;5092673;28;20440;-76
2022/08/11 11:39:52;;;;;;;2.53;2.33;;;;;;;;;;5088447;28;20497;-78
2022/08/11 11:42:21;;;;;;;2.20;2.10;;;;;;;;;;5086873;28;20444;-76
2022/08/11 11:44:48;;;;;;;2.43;2.20;;;;;;;;;;5092248;28;20516;-76
2022/08/11 11:47:18;;;;;;;4.57;2.10;;;;;;;;;;5092637;28;20444;-75
2022/08/11 11:49:47;;;;;;;2.37;2.17;;;;;;;;;;5100086;28;20428;-76
2022/08/11 11:52:16;;;;;;;2.10;2.00;;;;;;;;;;5098181;28;20450;-76
2022/08/11 11:54:43;;;;;;;2.23;2.03;;;;;;;;;;5096498;28;20460;-76
2022/08/11 12:02:43;;;;;;;2.07;1.97;;;;;;;;;;5092727;28;20921;-76
2022/08/11 12:05:10;;;;;;;2.37;2.17;;;;;;;;;;5091970;28;20525;-77
2022/08/11 12:10:23;;;;;;;2.43;2.23;;;;;;;;;;5092128;28;20896;-75
2022/08/11 12:15:40;;;;;;;2.00;1.90;;;;;;;;;;5074188;28;20824;-77
2022/08/11 12:18:07;;;;;;;2.20;2.10;;;;;;;;;;5092357;28;20451;-77
2022/08/11 12:20:34;;;;;;;2.43;1.90;;;;;;;;;;5091051;28;20497;-77
2022/08/11 12:28:31;;;;;;;2.33;2.13;;;;;;;;;;5091812;28;21040;-76
2022/08/11 12:31:00;;;;;;;2.00;1.90;;;;;;;;;;5091671;28;20491;-76
2022/08/11 12:33:28;;;;;;;2.47;2.00;;;;;;;;;;5091493;28;20505;-77
2022/08/11 12:35:57;;;;;;;2.50;2.30;;;;;;;;;;5091528;28;20468;-75
2022/08/11 12:38:24;;;;;;;2.37;2.17;;;;;;;;;;5091587;28;20504;-77
2022/08/11 12:46:24;;;;;;;2.67;2.30;;;;;;;;;;5091151;28;20585;-76
2022/08/11 12:51:58;;;;;;;2.30;2.10;;;;;;;;;;5091292;28;20551;-76
2022/08/11 12:54:27;;;;;;;4.53;2.03;;;;;;;;;;5090386;28;20909;-76
2022/08/11 13:05:15;;;;;;;2.63;1.83;;;;;;;;;;5095315;28;20443;-75
2022/08/11 13:07:43;;;;;;;3.60;2.03;;;;;;;;;;5091810;28;20463;-77
2022/08/11 13:10:10;;;;;;;2.27;2.10;;;;;;;;;;5084771;28;20437;-77
2022/08/11 13:12:46;;;;;;;2.17;2.07;;;;;;;;;;5070613;28;20441;-76
2022/08/11 13:15:15;;;;;;;2.33;2.13;;;;;;;;;;5070677;28;20535;-76
2022/08/11 13:17:43;;;;;;;2.13;2.03;;;;;;;;;;5070888;28;20437;-76
2022/08/11 13:20:11;;;;;;;2.67;2.10;;;;;;;;;;5069969;28;20445;-75
2022/08/11 13:22:39;;;;;;;2.03;1.93;;;;;;;;;;5070491;28;20499;-76
2022/08/11 13:25:08;;;;;;;2.40;2.30;;;;;;;;;;5073907;28;20523;-77
2022/08/11 13:27:35;;;;;;;1.70;1.60;;;;;;;;;;5073521;28;20794;-76
2022/08/11 13:32:48;;;;;;;2.63;1.80;;;;;;;;;;5049009;28;20466;-77
2022/08/11 13:35:15;;;;;;;2.40;2.20;;;;;;;;;;5070967;28;20513;-76
2022/08/11 13:37:45;;;;;;;4.73;1.90;;;;;;;;;;5070896;28;20448;-77
2022/08/11 13:40:13;;;;;;;4.80;4.20;;;;;;;;;;5070820;28;20445;-77
2022/08/11 13:42:41;;;;;;;3.67;1.90;;;;;;;;;;5070411;28;20963;-77
2022/08/11 13:45:09;;;;;;;4.90;2.10;;;;;;;;;;5070831;28;20465;-76
2022/08/11 13:47:37;;;;;;;3.00;2.07;;;;;;;;;;5072081;28;20518;-76
2022/08/11 13:50:06;;;;;;;2.37;2.07;;;;;;;;;;5072369;28;20441;-75
2022/08/11 13:52:34;;;;;;;2.40;2.17;;;;;;;;;;5071676;28;20437;-76
2022/08/11 13:55:01;;;;;;;2.10;2.00;;;;;;;;;;5070818;28;20893;-76
2022/08/11 13:57:32;;;;;;;2.13;2.03;;;;;;;;;;5070543;28;20441;-78
2022/08/11 14:00:08;;;;;;;2.40;2.13;;;;;;;;;;5070886;28;20455;-76
2022/08/11 14:02:36;;;;;;;2.20;2.00;;;;;;;;;;5073774;28;20475;-75
2022/08/11 14:05:06;;;;;;;2.00;1.77;;;;;;;;;;5073632;28;20878;-76
2022/08/11 14:07:35;;;;;;;2.00;1.90;;;;;;;;;;5072436;28;20452;-77
2022/08/11 14:10:03;;;;;;;5.90;2.23;;;;;;;;;;5078003;28;20930;-77
2022/08/11 14:15:18;;;;;;;1.50;1.50;;;;;;;;;;5089921;28;20592;-77
2022/08/11 14:17:48;;;;;;;2.93;1.87;;;;;;;;;;5090013;28;20443;-78
2022/08/11 14:20:17;;;;;;;3.27;2.47;;;;;;;;;;5090207;28;20443;-75
2022/08/11 14:22:45;;;;;;;2.60;1.90;;;;;;;;;;5089984;28;20489;-75
2022/08/11 14:25:14;;;;;;;2.10;2.00;;;;;;;;;;5090302;28;20487;-76
2022/08/11 14:27:41;;;;;;;2.47;1.87;;;;;;;;;;5087251;28;20489;-76
2022/08/11 14:30:53;;;;;;;2.00;1.90;;;;;;;;;;5089637;28;20443;-76
2022/08/11 14:32:56;;;;;;;2.37;2.20;;;;;;;;;;5092815;28;20432;-76
2022/08/11 14:35:25;;;;;;;2.00;1.90;;;;;;;;;;5094185;28;20520;-76
2022/08/11 14:37:52;;;;;;;2.10;2.00;;;;;;;;;;5093541;28;20450;-76
2022/08/11 14:48:31;;;;;;;3.93;2.17;;;;;;;;;;5094010;28;21025;-77
2022/08/11 14:51:00;;;;;;;4.00;1.90;;;;;;;;;;5094033;28;20501;-76
2022/08/11 14:53:27;;;;;;;3.67;2.20;;;;;;;;;;5093423;28;20516;-76
2022/08/11 14:58:39;;;;;;;4.83;2.10;;;;;;;;;;5093109;28;21048;-78
2022/08/11 15:03:05;;;;;;;2.00;1.87;;;;;;;;;;5093498;28;20432;-76
2022/08/11 15:03:52;;;;;;;2.83;2.07;;;;;;;;;;5092341;28;20857;-75
2022/08/11 15:06:21;;;;;;;2.23;2.13;;;;;;;;;;5092651;28;20462;-76
2022/08/11 15:08:54;;;;;;;1.77;1.67;;;;;;;;;;5093033;28;20435;-76
2022/08/11 15:14:09;;;;;;;2.07;1.90;;;;;;;;;;5092490;28;20466;-75
2022/08/11 15:19:22;;;;;;;2.03;1.83;;;;;;;;;;5092717;28;20390;-77
2022/08/11 15:24:36;;;;;;;2.17;2.07;;;;;;;;;;5092849;28;20527;-77
2022/08/11 15:38:11;;;;;;;2.13;2.03;;;;;;;;;;5092434;28;20447;-76
2022/08/11 15:46:18;;;;;;;2.00;1.90;;;;;;;;;;5053139;28;20452;-77
2022/08/11 15:48:47;;;;;;;2.57;2.10;;;;;;;;;;5092637;28;20809;-76
2022/08/11 15:51:21;;;;;;;2.00;1.90;;;;;;;;;;5092785;28;20451;-77
2022/08/11 15:53:52;;;;;;;4.27;1.93;;;;;;;;;;5092242;28;20506;-76
2022/08/11 15:56:21;;;;;;;2.17;1.90;;;;;;;;;;5092216;28;20482;-77
2022/08/11 16:04:22;;;;;;;6.40;2.00;;;;;;;;;;5092257;28;20439;-77
2022/08/11 16:06:51;;;;;;;4.30;2.07;;;;;;;;;;5090981;28;20493;-78
2022/08/11 16:09:22;;;;;;;2.40;1.87;;;;;;;;;;5093049;28;20443;-76
2022/08/11 16:11:50;;;;;;;2.80;2.10;;;;;;;;;;5088520;28;20893;-77
2022/08/11 16:17:03;;;;;;;2.20;1.93;;;;;;;;;;5075826;28;20418;-77
2022/08/11 16:19:34;;;;;;;2.00;1.90;;;;;;;;;;5077967;28;20455;-76
2022/08/11 16:22:03;;;;;;;2.30;2.20;;;;;;;;;;5089969;28;20493;-77
2022/08/11 16:24:32;;;;;;;3.17;2.33;;;;;;;;;;5091698;28;20460;-78
2022/08/11 16:27:00;;;;;;;2.20;1.90;;;;;;;;;;5092039;28;20439;-78
2022/08/11 16:29:27;;;;;;;2.17;2.07;;;;;;;;;;5090403;28;20448;-76
2022/08/11 16:40:11;;;;;;;2.30;2.00;;;;;;;;;;5092761;28;20469;-77
2022/08/11 16:48:09;;;;;;;4.63;2.37;;;;;;;;;;5092824;28;20534;-77
2022/08/11 16:50:37;;;;;;;2.57;2.37;;;;;;;;;;5091841;28;20864;-77
2022/08/11 16:53:05;;;;;;;3.43;2.60;;;;;;;;;;5092293;28;20462;-77
2022/08/11 16:55:34;;;;;;;3.07;2.50;;;;;;;;;;5094019;28;20540;-77
2022/08/11 17:00:47;;;;;;;4.10;2.07;;;;;;;;;;5096688;28;20415;-77
2022/08/11 17:14:24;;;;;;;2.37;2.17;;;;;;;;;;5091341;28;20877;-77
2022/08/11 17:16:51;;;;;;;3.10;1.90;;;;;;;;;;5091566;28;20455;-77
2022/08/11 17:19:22;;;;;;;2.63;2.20;;;;;;;;;;5091156;28;20443;-77
2022/08/11 17:24:35;;;;;;;3.73;2.30;;;;;;;;;;5091052;28;20442;-76
2022/08/11 17:27:06;;;;;;;2.37;2.17;;;;;;;;;;5090474;28;20852;-77
2022/08/11 17:29:34;;;;;;;2.67;2.47;;;;;;;;;;5091034;28;20440;-77
2022/08/11 17:37:35;;;;;;;2.27;2.17;;;;;;;;;;5084693;28;20419;-76
2022/08/11 17:40:04;;;;;;;5.70;2.57;;;;;;;;;;5090232;28;20440;-77
2022/08/11 17:50:50;;;;;;;3.40;2.27;;;;;;;;;;5091562;28;20412;-78
2022/08/11 18:01:35;;;;;;;2.90;2.60;;;;;;;;;;5087096;28;20431;-77
2022/08/11 18:04:03;;;;;;;5.00;2.70;;;;;;;;;;5089945;28;20457;-78
2022/08/11 18:06:30;;;;;;;2.33;2.23;;;;;;;;;;5091911;28;20461;-77
